Time;durP1;ratioP1;P1;durP2;ratioP2;P2;SDS_P1;SDS_P2;PMS_P1;PMS_P2;Temp;Humidity;BMP_temperature;BMP_pressure;BME280_temperature;BME280_humidity;BME280_pressure;Samples;Min_cycle;Max_cycle;Signal;HPM_P1;HPM_P2
2022/02/16 00:00:49;;;;;;;3.03;0.98;;;;;;;1.18;100.00;92805.25;2096846;28;20062;-83
2022/02/16 00:01:50;;;;;;;3.17;1.85;;;;;;;1.07;100.00;92799.16;2110541;28;20054;-84
2022/02/16 00:02:51;;;;;;;3.08;0.90;;;;;;;1.00;100.00;92797.19;2104083;28;20480;-83
2022/02/16 00:03:52;;;;;;;5.72;1.92;;;;;;;1.15;100.00;92790.94;2097911;28;20016;-83
2022/02/16 00:04:53;;;;;;;3.60;1.20;;;;;;;1.04;100.00;92797.97;2089522;28;20021;-83
2022/02/16 00:05:54;;;;;;;2.65;1.10;;;;;;;0.95;100.00;92792.25;2097698;28;21177;-84
2022/02/16 00:06:55;;;;;;;3.05;0.70;;;;;;;1.02;100.00;92791.59;2097611;28;20060;-84
2022/02/16 00:07:56;;;;;;;3.38;1.10;;;;;;;0.84;100.00;92797.44;2089758;28;20513;-84
2022/02/16 00:08:57;;;;;;;4.05;1.10;;;;;;;1.08;100.00;92790.88;2094302;28;20158;-84
2022/02/16 00:09:58;;;;;;;1.73;0.85;;;;;;;1.11;100.00;92784.91;2094618;28;20119;-82
2022/02/16 00:10:59;;;;;;;3.92;1.08;;;;;;;1.06;100.00;92781.84;2104150;28;20097;-83
2022/02/16 00:12:03;;;;;;;2.75;1.15;;;;;;;0.95;100.00;92790.38;2117206;27;20031;-83
2022/02/16 00:13:04;;;;;;;2.25;0.90;;;;;;;1.00;100.00;92781.41;2113472;28;20024;-84
2022/02/16 00:14:05;;;;;;;3.03;1.20;;;;;;;1.06;100.00;92785.22;2096028;28;20115;-84
2022/02/16 00:15:08;;;;;;;5.07;1.45;;;;;;;0.93;100.00;92779.47;2102883;28;20032;-83
2022/02/16 00:16:09;;;;;;;2.47;0.80;;;;;;;1.00;100.00;92791.94;2109916;28;20016;-83
2022/02/16 00:17:10;;;;;;;2.88;1.00;;;;;;;0.92;100.00;92785.88;2112022;28;20428;-83
2022/02/16 00:18:11;;;;;;;4.30;1.58;;;;;;;0.83;100.00;92780.13;2099362;28;20060;-84
2022/02/16 00:19:12;;;;;;;4.45;2.05;;;;;;;0.81;100.00;92787.63;2097722;28;20139;-84
2022/02/16 00:20:13;;;;;;;4.25;1.23;;;;;;;0.71;100.00;92783.03;2103052;28;20020;-84
2022/02/16 00:21:14;;;;;;;4.38;1.23;;;;;;;0.65;100.00;92784.47;2102407;28;20363;-83
2022/02/16 00:22:15;;;;;;;5.05;1.08;;;;;;;0.62;100.00;92785.97;2097540;28;20055;-83
2022/02/16 00:23:16;;;;;;;2.67;1.15;;;;;;;0.66;100.00;92785.97;2093392;28;20043;-84
2022/02/16 00:24:17;;;;;;;6.00;1.10;;;;;;;0.58;100.00;92787.03;2111723;28;20015;-83
2022/02/16 00:25:18;;;;;;;5.60;1.20;;;;;;;0.55;100.00;92785.13;2108120;28;20097;-83
2022/02/16 00:26:19;;;;;;;4.78;1.17;;;;;;;0.55;100.00;92782.50;2096355;28;20074;-83
2022/02/16 00:27:20;;;;;;;3.95;0.93;;;;;;;0.62;100.00;92774.69;2101759;28;20020;-83
2022/02/16 00:28:22;;;;;;;2.35;0.77;;;;;;;0.62;100.00;92777.31;2100865;28;20481;-83
2022/02/16 00:29:23;;;;;;;4.90;1.27;;;;;;;0.90;100.00;92776.81;2100305;28;20103;-84
2022/02/16 00:30:24;;;;;;;3.80;1.10;;;;;;;0.81;100.00;92781.63;2100490;28;20017;-83
2022/02/16 00:31:25;;;;;;;2.55;0.82;;;;;;;0.80;100.00;92772.97;2103018;28;20021;-83
2022/02/16 00:32:25;;;;;;;7.18;1.00;;;;;;;0.92;100.00;92771.94;2103656;28;20423;-82
2022/02/16 00:33:27;;;;;;;2.25;1.00;;;;;;;0.78;100.00;92772.56;2112866;28;20045;-83
2022/02/16 00:34:27;;;;;;;3.35;1.17;;;;;;;0.72;100.00;92768.75;2101952;28;20021;-82
2022/02/16 00:35:30;;;;;;;3.55;0.98;;;;;;;0.65;100.00;92772.06;2103370;28;20023;-83
2022/02/16 00:36:32;;;;;;;1.00;0.80;;;;;;;0.62;100.00;92772.06;2102037;28;20020;-84
2022/02/16 00:37:34;;;;;;;7.28;1.02;;;;;;;0.79;100.00;92774.09;2101889;28;20042;-83
2022/02/16 00:38:35;;;;;;;5.03;1.00;;;;;;;0.79;100.00;92774.09;2102652;28;20028;-84
2022/02/16 00:39:36;;;;;;;3.95;1.13;;;;;;;0.88;100.00;92765.88;2104506;28;20048;-83
2022/02/16 00:40:37;;;;;;;3.85;1.10;;;;;;;0.74;100.00;92762.00;2107031;28;20098;-84
2022/02/16 00:41:38;;;;;;;6.13;0.93;;;;;;;0.69;100.00;92769.47;2111823;28;20047;-84
2022/02/16 00:42:39;;;;;;;3.50;0.90;;;;;;;0.63;100.00;92757.78;2102765;28;20078;-83
2022/02/16 00:43:40;;;;;;;4.13;1.10;;;;;;;0.82;100.00;92756.81;2113632;28;20019;-83
2022/02/16 00:44:41;;;;;;;1.92;0.90;;;;;;;0.75;100.00;92774.06;2101766;28;20131;-83
2022/02/16 00:45:42;;;;;;;4.07;0.90;;;;;;;0.93;100.00;92768.22;2102348;28;20073;-82
2022/02/16 00:46:43;;;;;;;1.88;0.98;;;;;;;0.99;100.00;92770.13;2111473;28;20072;-83
2022/02/16 00:47:44;;;;;;;6.88;1.17;;;;;;;0.98;100.00;92762.59;2101649;28;20051;-84
2022/02/16 00:48:45;;;;;;;2.88;1.13;;;;;;;0.91;100.00;92759.91;2101174;28;20084;-83
2022/02/16 00:49:46;;;;;;;2.15;0.80;;;;;;;0.93;100.00;92758.44;2100500;28;20113;-83
2022/02/16 00:50:47;;;;;;;5.38;1.25;;;;;;;0.88;100.00;92755.34;2094781;28;20711;-83
2022/02/16 00:51:48;;;;;;;3.42;0.80;;;;;;;0.91;100.00;92755.41;2091770;28;20402;-83
2022/02/16 00:52:48;;;;;;;2.78;0.95;;;;;;;0.85;100.00;92761.38;2105927;28;20044;-83
2022/02/16 00:53:49;;;;;;;3.25;0.90;;;;;;;0.75;100.00;92760.16;2101051;28;20051;-82
2022/02/16 00:54:51;;;;;;;5.88;1.00;;;;;;;0.81;100.00;92750.06;2101011;28;20036;-84
2022/02/16 00:55:52;;;;;;;3.88;0.90;;;;;;;0.82;100.00;92762.09;2103083;28;20068;-83
2022/02/16 00:57:01;;;;;;;3.58;1.08;;;;;;;0.74;100.00;92754.13;2092125;28;20023;-83
2022/02/16 00:58:05;;;;;;;2.28;0.98;;;;;;;0.73;100.00;92749.97;2102166;28;20024;-82
2022/02/16 00:59:06;;;;;;;3.67;0.90;;;;;;;0.81;100.00;92744.78;2101240;28;20408;-83
2022/02/16 01:00:08;;;;;;;5.32;1.02;;;;;;;0.95;100.00;92743.03;2102099;28;20023;-83
2022/02/16 01:01:09;;;;;;;2.28;0.98;;;;;;;0.74;100.00;92748.84;2095425;28;20020;-83
2022/02/16 01:02:10;;;;;;;3.22;1.13;;;;;;;0.71;100.00;92744.34;2105086;28;20012;-84
2022/02/16 01:03:11;;;;;;;3.80;1.30;;;;;;;0.67;100.00;92748.81;2101259;28;20028;-83
2022/02/16 01:04:12;;;;;;;3.70;0.95;;;;;;;0.67;100.00;92750.69;2112560;28;20024;-84
2022/02/16 01:05:12;;;;;;;1.92;0.93;;;;;;;0.67;100.00;92753.31;2110032;28;20051;-84
2022/02/16 01:06:13;;;;;;;3.88;1.00;;;;;;;0.69;100.00;92740.53;2105622;28;20091;-83
2022/02/16 01:07:14;;;;;;;3.25;0.77;;;;;;;0.69;100.00;92746.56;2114089;28;20019;-83
2022/02/16 01:08:16;;;;;;;4.65;0.90;;;;;;;0.73;100.00;92743.97;2097964;28;20491;-84
2022/02/16 01:09:17;;;;;;;1.67;0.90;;;;;;;0.63;100.00;92742.00;2103452;28;20029;-84
2022/02/16 01:10:17;;;;;;;7.28;1.40;;;;;;;0.69;100.00;92743.19;2102206;28;20443;-83
2022/02/16 01:11:21;;;;;;;4.60;1.13;;;;;;;0.58;100.00;92737.06;2096033;28;20070;-84
2022/02/16 01:12:23;;;;;;;2.45;0.80;;;;;;;0.56;100.00;92736.66;2103433;28;20059;-84
2022/02/16 01:13:26;;;;;;;1.33;0.90;;;;;;;0.68;100.00;92737.16;2110595;28;20023;-83
2022/02/16 01:14:27;;;;;;;3.58;0.93;;;;;;;0.63;100.00;92734.13;2105125;28;20019;-83
2022/02/16 01:15:29;;;;;;;3.72;0.90;;;;;;;0.70;100.00;92734.94;2094727;28;20079;-84
2022/02/16 01:16:30;;;;;;;3.53;1.00;;;;;;;0.70;100.00;92736.78;2102333;27;20674;-84
2022/02/16 01:17:33;;;;;;;2.03;1.05;;;;;;;0.77;100.00;92734.22;2103754;28;20020;-84
2022/02/16 01:18:34;;;;;;;1.90;0.88;;;;;;;0.76;100.00;92727.47;2094321;28;20381;-83
2022/02/16 01:19:35;;;;;;;4.35;1.10;;;;;;;0.85;100.00;92727.91;2092446;28;20032;-83
2022/02/16 01:20:36;;;;;;;1.67;1.00;;;;;;;0.71;100.00;92730.44;2105495;28;20036;-83
2022/02/16 01:21:37;;;;;;;2.92;0.90;;;;;;;0.73;100.00;92722.94;2101464;28;20054;-83
2022/02/16 01:22:38;;;;;;;2.30;0.80;;;;;;;0.73;100.00;92726.31;2111486;28;21629;-83
2022/02/16 01:23:40;;;;;;;2.28;1.20;;;;;;;0.62;100.00;92724.72;2105723;28;20024;-83
2022/02/16 01:24:41;;;;;;;5.40;0.93;;;;;;;0.56;100.00;92726.16;2104596;28;20035;-83
2022/02/16 01:25:42;;;;;;;3.05;1.23;;;;;;;0.54;100.00;92723.88;2093948;28;20040;-84
2022/02/16 01:26:43;;;;;;;2.65;1.27;;;;;;;0.50;100.00;92723.09;2100104;28;20023;-83
2022/02/16 01:27:45;;;;;;;4.45;1.23;;;;;;;0.45;100.00;92710.28;2102757;28;20120;-83
2022/02/16 01:28:46;;;;;;;4.72;0.85;;;;;;;0.70;100.00;92710.50;2107556;28;20022;-84
2022/02/16 01:29:47;;;;;;;2.85;1.30;;;;;;;0.75;100.00;92705.66;2101146;28;20077;-84
2022/02/16 01:30:48;;;;;;;3.78;1.00;;;;;;;0.80;100.00;92709.09;2094858;28;20384;-83
2022/02/16 01:31:51;;;;;;;3.60;1.08;;;;;;;0.75;100.00;92710.19;2095280;28;20021;-82
2022/02/16 01:32:52;;;;;;;3.03;0.90;;;;;;;0.56;100.00;92713.75;2097205;28;20516;-83
2022/02/16 01:33:53;;;;;;;2.70;0.88;;;;;;;0.62;100.00;92708.94;2105432;28;20100;-83
2022/02/16 01:34:54;;;;;;;5.30;0.93;;;;;;;0.59;100.00;92709.66;2113373;28;20077;-83
2022/02/16 01:35:55;;;;;;;1.65;0.52;;;;;;;0.60;100.00;92708.53;2103555;28;20024;-84
2022/02/16 01:36:56;;;;;;;1.95;0.90;;;;;;;0.66;100.00;92697.34;2102462;28;20508;-84
2022/02/16 01:37:58;;;;;;;4.50;0.88;;;;;;;0.70;100.00;92694.72;2097329;28;20048;-83
2022/02/16 01:38:59;;;;;;;3.47;0.90;;;;;;;0.61;100.00;92705.53;2113717;28;20043;-84
2022/02/16 01:40:00;;;;;;;2.13;0.77;;;;;;;0.64;100.00;92693.53;2119107;27;20015;-83
2022/02/16 01:41:02;;;;;;;1.88;0.90;;;;;;;0.60;100.00;92693.50;2111653;28;20065;-83
2022/02/16 01:42:04;;;;;;;2.33;0.70;;;;;;;0.69;100.00;92693.19;2097551;28;20013;-83
2022/02/16 01:43:05;;;;;;;3.40;0.90;;;;;;;0.68;100.00;92689.06;2104998;28;20035;-84
2022/02/16 01:44:06;;;;;;;4.90;1.00;;;;;;;0.77;100.00;92692.16;2118129;27;20189;-82
2022/02/16 01:45:09;;;;;;;2.85;1.10;;;;;;;0.72;100.00;92685.34;2104944;28;20016;-83
2022/02/16 01:46:10;;;;;;;2.40;0.70;;;;;;;0.65;100.00;92685.28;2097380;28;20021;-84
2022/02/16 01:47:11;;;;;;;2.60;0.90;;;;;;;0.69;100.00;92682.69;2103820;28;20054;-84
2022/02/16 01:48:13;;;;;;;3.90;0.95;;;;;;;0.59;100.00;92675.47;2103945;28;20024;-84
2022/02/16 01:49:14;;;;;;;4.85;1.00;;;;;;;0.64;100.00;92675.13;2095928;28;20020;-82
2022/02/16 01:50:15;;;;;;;2.90;0.85;;;;;;;0.53;100.00;92682.16;2105522;28;20065;-83
2022/02/16 01:51:16;;;;;;;2.33;0.80;;;;;;;0.64;100.00;92678.50;2116650;27;20426;-83
2022/02/16 01:52:17;;;;;;;4.47;0.90;;;;;;;0.67;100.00;92679.69;2104661;28;20450;-84
2022/02/16 01:53:17;;;;;;;1.98;0.88;;;;;;;0.50;100.00;92675.78;2096987;28;20170;-83
2022/02/16 01:54:19;;;;;;;1.85;0.88;;;;;;;0.69;100.00;92675.53;2098636;28;20012;-84
2022/02/16 01:55:20;;;;;;;1.85;0.90;;;;;;;0.72;100.00;92681.97;2097204;28;20020;-84
2022/02/16 01:56:21;;;;;;;4.40;1.17;;;;;;;0.66;100.00;92675.50;2094849;28;20020;-83
2022/02/16 01:57:22;;;;;;;5.07;0.80;;;;;;;0.64;100.00;92681.16;2105016;28;20742;-84
2022/02/16 01:58:23;;;;;;;2.55;0.82;;;;;;;0.66;100.00;92680.78;2103692;28;20093;-83
2022/02/16 01:59:26;;;;;;;1.50;0.70;;;;;;;0.75;100.00;92678.63;2103992;28;20019;-83
2022/02/16 02:00:27;;;;;;;4.18;1.00;;;;;;;0.96;100.00;92684.00;2105930;28;20517;-84
2022/02/16 02:01:29;;;;;;;4.68;0.70;;;;;;;0.77;100.00;92679.00;2100052;28;20662;-83
2022/02/16 02:02:30;;;;;;;2.88;0.80;;;;;;;0.75;100.00;92674.09;2091948;28;20016;-83
2022/02/16 02:03:32;;;;;;;3.17;0.80;;;;;;;0.68;100.00;92671.41;2097559;28;20475;-85
2022/02/16 02:04:33;;;;;;;2.67;1.08;;;;;;;0.61;100.00;92673.22;2094967;28;20032;-83
2022/02/16 02:05:34;;;;;;;1.88;0.60;;;;;;;0.57;100.00;92667.16;2104362;28;20060;-84
2022/02/16 02:06:35;;;;;;;7.38;0.85;;;;;;;0.55;100.00;92667.53;2108984;28;20171;-83
2022/02/16 02:07:37;;;;;;;2.28;0.80;;;;;;;0.53;100.00;92664.53;2109055;28;20032;-84
2022/02/16 02:08:38;;;;;;;5.82;1.10;;;;;;;0.55;100.00;92661.53;2107031;28;20337;-83
2022/02/16 02:09:39;;;;;;;1.35;0.70;;;;;;;0.70;100.00;92660.50;2098914;28;20059;-83
2022/02/16 02:10:40;;;;;;;2.78;0.93;;;;;;;0.78;100.00;92653.44;2100139;28;20020;-83
2022/02/16 02:11:42;;;;;;;1.85;0.90;;;;;;;0.82;100.00;92662.13;2098437;28;20035;-83
2022/02/16 02:12:45;;;;;;;5.45;1.40;;;;;;;0.73;100.00;92659.78;2102933;28;20403;-83
2022/02/16 02:13:53;;;;;;;4.57;0.80;;;;;;;0.67;100.00;92656.75;2110079;28;20440;-83
2022/02/16 02:14:54;;;;;;;3.03;0.85;;;;;;;0.60;100.00;92650.69;2102870;28;20017;-83
2022/02/16 02:15:57;;;;;;;1.52;0.85;;;;;;;0.56;100.00;92648.00;2105839;28;20464;-82
2022/02/16 02:16:58;;;;;;;3.92;0.88;;;;;;;0.56;100.00;92649.91;2108133;28;20032;-83
2022/02/16 02:17:59;;;;;;;5.03;0.95;;;;;;;0.44;100.00;92649.06;2111670;28;20995;-83
2022/02/16 02:19:03;;;;;;;4.43;1.00;;;;;;;0.56;100.00;92647.25;2105494;28;20046;-84
2022/02/16 02:20:18;;;;;;;2.47;1.15;;;;;;;0.43;100.00;92652.03;2097718;28;20016;-84
2022/02/16 02:21:20;;;;;;;4.65;1.40;;;;;;;0.26;100.00;92658.66;2100820;28;20062;-83
2022/02/16 02:22:21;;;;;;;4.57;1.10;;;;;;;0.42;100.00;92640.78;2093949;28;20016;-83
2022/02/16 02:23:22;;;;;;;3.20;1.00;;;;;;;0.35;100.00;92639.94;2101290;28;20051;-83
2022/02/16 02:24:23;;;;;;;2.92;0.90;;;;;;;0.31;100.00;92647.03;2102980;28;20496;-83
2022/02/16 02:25:24;;;;;;;2.58;1.10;;;;;;;0.37;100.00;92641.09;2105300;28;20046;-84
2022/02/16 02:26:26;;;;;;;1.92;1.15;;;;;;;0.62;100.00;92636.06;2103288;28;20465;-83
2022/02/16 02:27:27;;;;;;;2.90;0.90;;;;;;;0.49;100.00;92635.59;2102466;28;20047;-84
2022/02/16 02:28:28;;;;;;;1.83;0.95;;;;;;;0.47;100.00;92639.69;2108162;28;20027;-83
2022/02/16 02:29:29;;;;;;;2.97;1.10;;;;;;;0.61;100.00;92639.03;2104178;28;20020;-84
2022/02/16 02:30:30;;;;;;;3.78;0.98;;;;;;;0.54;100.00;92631.09;2113341;28;20015;-83
2022/02/16 02:31:36;;;;;;;1.65;0.80;;;;;;;0.64;100.00;92625.16;2104436;28;20117;-83
2022/02/16 02:32:45;;;;;;;3.72;1.00;;;;;;;0.67;100.00;92625.19;2098352;28;20048;-83
2022/02/16 02:33:46;;;;;;;2.22;1.00;;;;;;;0.47;100.00;92626.53;2098307;28;20504;-84
2022/02/16 02:34:47;;;;;;;3.40;0.98;;;;;;;0.39;100.00;92627.59;2103773;28;20028;-85
2022/02/16 02:35:49;;;;;;;2.88;1.02;;;;;;;0.34;100.00;92623.44;2112949;28;20024;-84
2022/02/16 02:36:50;;;;;;;2.30;1.00;;;;;;;0.33;100.00;92626.44;2105112;28;20019;-83
2022/02/16 02:37:51;;;;;;;1.83;0.77;;;;;;;0.31;100.00;92628.66;2103532;28;20016;-83
2022/02/16 02:38:53;;;;;;;3.50;1.40;;;;;;;0.39;100.00;92623.09;2103147;28;20262;-85
2022/02/16 02:39:59;;;;;;;1.08;0.80;;;;;;;0.46;100.00;92620.53;2108537;28;20443;-83
2022/02/16 02:41:04;;;;;;;6.90;1.60;;;;;;;0.38;100.00;92628.72;2102454;28;20152;-84
2022/02/16 02:42:05;;;;;;;2.80;1.23;;;;;;;0.30;100.00;92617.38;2094716;28;20031;-84
2022/02/16 02:43:07;;;;;;;2.38;1.00;;;;;;;0.24;100.00;92614.34;2090551;28;20025;-83
2022/02/16 02:44:08;;;;;;;2.88;1.10;;;;;;;0.33;100.00;92614.03;2109515;28;20020;-84
2022/02/16 02:45:11;;;;;;;5.30;0.90;;;;;;;0.26;100.00;92619.22;2101846;28;20069;-83
2022/02/16 02:46:12;;;;;;;5.10;0.93;;;;;;;0.24;100.00;92614.34;2103818;28;20032;-83
2022/02/16 02:47:13;;;;;;;2.45;1.00;;;;;;;0.29;100.00;92615.13;2113527;28;20069;-84
2022/02/16 02:48:14;;;;;;;2.17;0.95;;;;;;;0.48;100.00;92610.41;2112337;28;20483;-83
2022/02/16 02:49:15;;;;;;;2.65;0.73;;;;;;;0.58;100.00;92618.75;2101925;28;20020;-84
2022/02/16 02:50:16;;;;;;;3.85;1.45;;;;;;;0.54;100.00;92610.81;2105077;28;20119;-84
2022/02/16 02:51:18;;;;;;;3.67;1.10;;;;;;;0.45;100.00;92611.13;2102028;28;20030;-83
2022/02/16 02:52:19;;;;;;;2.88;0.98;;;;;;;0.42;100.00;92606.59;2094148;28;20013;-85
2022/02/16 02:53:21;;;;;;;3.40;1.35;;;;;;;0.38;100.00;92607.69;2101018;28;20044;-84
2022/02/16 02:54:22;;;;;;;3.50;1.10;;;;;;;0.27;100.00;92604.22;2103160;28;20110;-84
2022/02/16 02:55:23;;;;;;;4.82;1.00;;;;;;;0.24;100.00;92600.44;2099819;28;20020;-83
2022/02/16 02:56:24;;;;;;;1.77;0.90;;;;;;;0.36;100.00;92600.19;2102667;28;20024;-83
2022/02/16 02:57:25;;;;;;;1.48;0.95;;;;;;;0.49;100.00;92601.41;2100725;28;20034;-84
2022/02/16 02:58:26;;;;;;;3.42;1.13;;;;;;;0.60;100.00;92595.47;2105270;28;20027;-84
2022/02/16 02:59:27;;;;;;;2.05;1.00;;;;;;;0.39;100.00;92590.78;2096822;28;20147;-84
2022/02/16 03:00:35;;;;;;;4.53;1.10;;;;;;;0.32;100.00;92591.50;2103989;28;20020;-83
2022/02/16 03:01:40;;;;;;;3.00;1.25;;;;;;;0.32;100.00;92586.25;2111585;28;20032;-84
2022/02/16 03:02:42;;;;;;;1.48;0.80;;;;;;;0.61;100.00;92591.69;2112994;28;20024;-83
2022/02/16 03:03:43;;;;;;;1.75;0.82;;;;;;;0.45;100.00;92591.97;2096021;28;20046;-84
2022/02/16 03:04:44;;;;;;;2.72;0.60;;;;;;;0.39;100.00;92585.53;2104983;28;20509;-84
2022/02/16 03:05:45;;;;;;;2.47;1.08;;;;;;;0.41;100.00;92583.31;2105182;28;20495;-85
2022/02/16 03:06:46;;;;;;;2.67;0.90;;;;;;;0.42;100.00;92587.44;2096489;28;20051;-85
2022/02/16 03:07:47;;;;;;;1.88;1.00;;;;;;;0.36;100.00;92589.66;2101573;28;20020;-84
2022/02/16 03:08:48;;;;;;;2.92;0.80;;;;;;;0.40;100.00;92587.06;2103963;28;20102;-84
2022/02/16 03:09:49;;;;;;;6.05;0.95;;;;;;;0.39;100.00;92588.91;2095001;28;20063;-83
2022/02/16 03:10:49;;;;;;;1.27;0.80;;;;;;;0.40;100.00;92582.56;2103186;28;20070;-83
2022/02/16 03:11:50;;;;;;;1.48;0.90;;;;;;;0.39;100.00;92580.28;2095231;28;20092;-84
2022/02/16 03:12:52;;;;;;;3.40;0.90;;;;;;;0.40;100.00;92579.19;2097947;28;20027;-83
2022/02/16 03:13:53;;;;;;;1.75;1.00;;;;;;;0.37;100.00;92579.91;2100790;28;20473;-84
2022/02/16 03:14:53;;;;;;;2.55;1.02;;;;;;;0.41;100.00;92576.19;2096326;28;20032;-82
2022/02/16 03:15:55;;;;;;;4.22;1.27;;;;;;;0.41;100.00;92563.03;2105674;28;20016;-82
2022/02/16 03:16:56;;;;;;;1.58;0.90;;;;;;;0.35;100.00;92567.13;2115013;28;20102;-84
2022/02/16 03:17:57;;;;;;;2.13;1.00;;;;;;;0.38;100.00;92561.13;2105854;28;20031;-83
2022/02/16 03:18:58;;;;;;;1.58;0.88;;;;;;;0.33;100.00;92565.97;2095598;28;20020;-83
2022/02/16 03:19:59;;;;;;;2.35;0.98;;;;;;;0.48;100.00;92551.78;2097840;28;20111;-83
2022/02/16 03:21:08;;;;;;;2.92;1.15;;;;;;;0.35;100.00;92553.22;2092068;28;20763;-84
2022/02/16 03:22:08;;;;;;;1.60;1.05;;;;;;;0.37;100.00;92551.72;2109089;28;20011;-84
2022/02/16 03:23:09;;;;;;;0.88;0.80;;;;;;;0.33;100.00;92553.59;2097846;28;20020;-84
2022/02/16 03:24:10;;;;;;;3.30;1.00;;;;;;;0.39;100.00;92544.22;2098162;28;20099;-85
2022/02/16 03:25:11;;;;;;;3.00;0.90;;;;;;;0.39;100.00;92541.59;2097414;28;20020;-83
2022/02/16 03:26:12;;;;;;;1.50;1.10;;;;;;;0.27;100.00;92541.16;2084935;28;20024;-83
2022/02/16 03:27:13;;;;;;;2.45;1.25;;;;;;;0.32;100.00;92552.06;2098100;28;20401;-84
2022/02/16 03:28:14;;;;;;;2.50;1.00;;;;;;;0.24;100.00;92537.38;2107446;28;20409;-83
2022/02/16 03:29:15;;;;;;;2.00;1.00;;;;;;;0.37;100.00;92538.59;2107813;28;20030;-84
2022/02/16 03:30:16;;;;;;;4.63;1.33;;;;;;;0.20;100.00;92541.84;2096062;28;20052;-85
2022/02/16 03:31:17;;;;;;;1.98;0.82;;;;;;;0.20;100.00;92539.22;2099549;28;20043;-84
2022/02/16 03:32:18;;;;;;;2.75;1.10;;;;;;;0.30;100.00;92543.78;2100133;28;20029;-84
2022/02/16 03:33:19;;;;;;;1.90;0.95;;;;;;;0.33;100.00;92547.56;2106468;28;20012;-84
2022/02/16 03:34:20;;;;;;;2.58;1.02;;;;;;;0.25;100.00;92544.13;2096345;28;20346;-84
2022/02/16 03:35:21;;;;;;;2.65;1.00;;;;;;;0.23;100.00;92538.50;2097667;28;20051;-84
2022/02/16 03:36:25;;;;;;;1.73;1.00;;;;;;;0.21;100.00;92535.47;2097984;28;20039;-85
2022/02/16 03:37:26;;;;;;;1.65;0.80;;;;;;;0.30;100.00;92548.28;2098025;28;20092;-84
2022/02/16 03:38:27;;;;;;;2.97;1.08;;;;;;;0.32;100.00;92541.56;2099542;28;20115;-84
2022/02/16 03:39:28;;;;;;;4.68;1.10;;;;;;;0.23;100.00;92541.13;2098557;28;20331;-84
2022/02/16 03:40:30;;;;;;;3.17;1.10;;;;;;;0.18;100.00;92536.22;2098091;28;20028;-84
2022/02/16 03:41:31;;;;;;;2.35;1.10;;;;;;;0.27;100.00;92541.91;2098071;28;20651;-84
2022/02/16 03:42:32;;;;;;;1.83;0.90;;;;;;;0.21;100.00;92524.94;2097833;28;20013;-84
2022/02/16 03:43:33;;;;;;;3.60;1.10;;;;;;;0.54;100.00;92528.56;2106459;28;20016;-84
2022/02/16 03:44:34;;;;;;;4.15;1.00;;;;;;;0.49;100.00;92532.28;2097901;28;20024;-84
2022/02/16 03:45:35;;;;;;;2.55;0.88;;;;;;;0.41;100.00;92531.50;2097934;28;20024;-83
2022/02/16 03:46:36;;;;;;;2.17;1.00;;;;;;;0.33;100.00;92531.81;2097852;28;20052;-83
2022/02/16 03:47:37;;;;;;;1.90;0.80;;;;;;;0.39;100.00;92530.34;2089194;28;20025;-84
2022/02/16 03:48:38;;;;;;;1.10;0.70;;;;;;;0.33;100.00;92524.66;2097999;28;20044;-84
2022/02/16 03:49:39;;;;;;;2.97;0.80;;;;;;;0.32;100.00;92520.53;2105684;28;20023;-84
2022/02/16 03:50:40;;;;;;;1.13;0.60;;;;;;;0.26;100.00;92521.97;2103573;28;20020;-84
2022/02/16 03:51:41;;;;;;;1.23;0.80;;;;;;;0.27;100.00;92520.13;2112758;28;20053;-84
2022/02/16 03:52:42;;;;;;;1.52;0.75;;;;;;;0.26;100.00;92516.72;2091459;28;20029;-84
2022/02/16 03:53:43;;;;;;;1.75;0.80;;;;;;;0.18;100.00;92526.44;2093021;28;20052;-85
2022/02/16 03:54:44;;;;;;;1.15;0.80;;;;;;;0.15;100.00;92526.41;2100315;28;20016;-84
2022/02/16 03:55:45;;;;;;;2.38;0.80;;;;;;;0.07;100.00;92528.22;2097707;28;20020;-84
2022/02/16 03:56:46;;;;;;;2.38;0.90;;;;;;;0.14;100.00;92520.41;2083130;28;20530;-85
2022/02/16 03:57:47;;;;;;;3.22;1.00;;;;;;;0.22;100.00;92527.22;2089614;28;20445;-85
2022/02/16 03:58:48;;;;;;;2.65;0.90;;;;;;;0.20;100.00;92526.81;2098009;28;20474;-84
2022/02/16 03:59:49;;;;;;;4.20;1.02;;;;;;;0.19;100.00;92525.31;2098118;28;20024;-84
2022/02/16 04:00:51;;;;;;;3.25;0.98;;;;;;;0.19;100.00;92530.59;2089834;28;20025;-85
2022/02/16 04:02:02;;;;;;;0.98;0.80;;;;;;;0.21;100.00;92524.94;2089751;28;20107;-85
2022/02/16 04:03:07;;;;;;;1.85;0.80;;;;;;;0.34;100.00;92520.16;2093768;28;20021;-84
2022/02/16 04:04:08;;;;;;;2.70;1.00;;;;;;;0.34;100.00;92526.16;2096617;28;20043;-85
2022/02/16 04:05:10;;;;;;;2.38;0.77;;;;;;;0.35;100.00;92524.28;2095988;28;20020;-85
2022/02/16 04:06:11;;;;;;;3.85;0.80;;;;;;;0.30;100.00;92528.00;2106498;28;20024;-84
2022/02/16 04:07:12;;;;;;;1.30;0.70;;;;;;;0.25;100.00;92521.22;2102007;28;20100;-84
2022/02/16 04:08:13;;;;;;;3.88;1.00;;;;;;;0.21;100.00;92522.31;2085404;28;20040;-85
2022/02/16 04:09:14;;;;;;;2.05;0.70;;;;;;;0.23;100.00;92517.47;2097693;28;20481;-85
2022/02/16 04:10:15;;;;;;;3.17;1.00;;;;;;;0.35;100.00;92519.03;2091774;28;20024;-85
2022/02/16 04:11:19;;;;;;;0.75;0.73;;;;;;;0.39;100.00;92520.56;2100797;28;20048;-85
2022/02/16 04:12:20;;;;;;;2.45;0.93;;;;;;;0.31;100.00;92513.00;2096050;28;20017;-84
2022/02/16 04:13:21;;;;;;;0.70;0.70;;;;;;;0.33;100.00;92516.03;2089311;28;20462;-85
2022/02/16 04:14:22;;;;;;;3.42;0.70;;;;;;;0.45;100.00;92505.22;2102089;28;20158;-84
2022/02/16 04:15:23;;;;;;;1.83;0.60;;;;;;;0.37;100.00;92519.44;2108663;28;20016;-85
2022/02/16 04:16:24;;;;;;;1.58;0.80;;;;;;;0.53;100.00;92508.63;2101628;28;20024;-85
2022/02/16 04:17:25;;;;;;;2.55;0.70;;;;;;;0.42;100.00;92514.59;2104243;28;20409;-84
2022/02/16 04:18:26;;;;;;;0.68;0.65;;;;;;;0.32;100.00;92507.41;2112162;28;20076;-86
2022/02/16 04:19:27;;;;;;;1.50;0.88;;;;;;;0.32;100.00;92510.03;2093471;28;20051;-85
2022/02/16 04:20:28;;;;;;;0.98;0.70;;;;;;;0.32;100.00;92510.03;2096274;28;20042;-85
2022/02/16 04:21:29;;;;;;;0.88;0.60;;;;;;;0.33;100.00;92510.78;2097203;28;20035;-85
2022/02/16 04:22:30;;;;;;;1.85;0.77;;;;;;;0.31;100.00;92511.16;2096421;28;20012;-85
2022/02/16 04:23:31;;;;;;;0.70;0.70;;;;;;;0.39;100.00;92511.94;2106015;28;20031;-85
2022/02/16 04:24:32;;;;;;;1.92;0.82;;;;;;;0.32;100.00;92506.66;2114546;28;20070;-86
2022/02/16 04:25:33;;;;;;;2.15;0.90;;;;;;;0.31;100.00;92513.78;2110343;28;20028;-85
2022/02/16 04:26:34;;;;;;;2.30;1.00;;;;;;;0.28;100.00;92506.63;2105524;28;20441;-85
2022/02/16 04:27:35;;;;;;;0.95;0.73;;;;;;;0.22;100.00;92505.44;2102702;28;20020;-86
2022/02/16 04:28:37;;;;;;;2.70;1.17;;;;;;;0.36;100.00;92508.19;2105780;28;20495;-85
2022/02/16 04:29:38;;;;;;;2.30;0.80;;;;;;;0.45;100.00;92499.97;2110581;28;20520;-85
2022/02/16 04:30:39;;;;;;;1.45;1.08;;;;;;;0.39;100.00;92501.41;2110212;28;20027;-85
2022/02/16 04:31:40;;;;;;;1.05;0.73;;;;;;;0.43;100.00;92504.81;2105834;28;20020;-85
2022/02/16 04:32:41;;;;;;;2.17;0.90;;;;;;;0.46;100.00;92501.47;2118554;27;20023;-85
2022/02/16 04:33:42;;;;;;;3.28;0.85;;;;;;;0.39;100.00;92506.66;2102158;28;20020;-85
2022/02/16 04:34:43;;;;;;;3.53;0.98;;;;;;;0.69;100.00;92494.06;2106196;28;20085;-86
2022/02/16 04:35:44;;;;;;;1.05;0.60;;;;;;;0.79;100.00;92500.53;2109114;28;20020;-84
2022/02/16 04:36:45;;;;;;;1.52;0.80;;;;;;;0.53;100.00;92492.84;2110168;28;20024;-85
2022/02/16 04:37:46;;;;;;;4.65;2.35;;;;;;;0.48;100.00;92497.38;2110295;28;20070;-85
2022/02/16 04:38:47;;;;;;;3.58;1.10;;;;;;;0.47;100.00;92490.56;2103780;28;20480;-85
2022/02/16 04:39:48;;;;;;;1.88;1.27;;;;;;;0.37;100.00;92486.03;2118412;27;20072;-85
2022/02/16 04:40:49;;;;;;;3.08;2.30;;;;;;;0.37;100.00;92498.41;2112322;28;20023;-84
2022/02/16 04:41:50;;;;;;;1.70;1.58;;;;;;;0.35;100.00;92487.50;2099347;28;20028;-85
2022/02/16 04:42:52;;;;;;;3.38;1.48;;;;;;;0.39;100.00;92489.03;2107667;28;20035;-84
2022/02/16 04:43:53;;;;;;;2.15;1.00;;;;;;;0.45;100.00;92484.94;2107925;28;20507;-84
2022/02/16 04:44:54;;;;;;;1.85;1.55;;;;;;;0.37;100.00;92493.16;2106023;28;20353;-84
2022/02/16 04:45:55;;;;;;;2.38;1.15;;;;;;;0.63;100.00;92479.03;2101619;28;20073;-85
2022/02/16 04:46:56;;;;;;;1.10;0.90;;;;;;;0.46;100.00;92486.44;2103754;28;20106;-85
2022/02/16 04:47:58;;;;;;;6.10;1.50;;;;;;;0.47;100.00;92490.56;2105902;28;20046;-84
2022/02/16 04:48:59;;;;;;;1.45;1.20;;;;;;;0.58;100.00;92495.16;2115327;27;20016;-84
2022/02/16 04:50:01;;;;;;;1.33;0.98;;;;;;;0.78;100.00;92483.22;2114208;27;20043;-85